Time;durP1;ratioP1;P1;durP2;ratioP2;P2;SDS_P1;SDS_P2;PMS_P1;PMS_P2;Temp;Humidity;BMP_temperature;BMP_pressure;BME280_temperature;BME280_humidity;BME280_pressure;Samples;Min_cycle;Max_cycle;Signal;HPM_P1;HPM_P2
2022/02/10 00:03:21;;;;;;;11.7;7.9;;;;;;;;;;;;;
2022/02/10 00:04:21;;;;;;;12;7.6;;;;;;;;;;;;;
2022/02/10 00:06:37;;;;;;;11.7;6.7;;;;;;;;;;;;;
2022/02/10 00:14:07;;;;;;;7.5;4.9;;;;;;;;;;;;;
2022/02/10 00:16:36;;;;;;;8.1;4.9;;;;;;;;;;;;;
2022/02/10 00:19:06;;;;;;;8.5;4.3;;;;;;;;;;;;;
2022/02/10 00:21:26;;;;;;;6.9;4.7;;;;;;;;;;;;;
2022/02/10 00:24:05;;;;;;;7.9;4.9;;;;;;;;;;;;;
2022/02/10 00:36:36;;;;;;;7;4.9;;;;;;;;;;;;;
2022/02/10 00:39:08;;;;;;;6.7;4.9;;;;;;;;;;;;;
2022/02/10 00:41:26;;;;;;;7.4;4.7;;;;;;;;;;;;;
2022/02/10 00:43:57;;;;;;;7.8;5.5;;;;;;;;;;;;;
2022/02/10 00:46:22;;;;;;;8.7;5;;;;;;;;;;;;;
2022/02/10 00:48:48;;;;;;;7.4;4.8;;;;;;;;;;;;;
2022/02/10 00:51:14;;;;;;;5.6;3.7;;;;;;;;;;;;;
2022/02/10 00:53:41;;;;;;;6.8;3.8;;;;;;;;;;;;;
2022/02/10 00:56:05;;;;;;;5.2;3.5;;;;;;;;;;;;;
2022/02/10 00:58:33;;;;;;;6.6;3.9;;;;;;;;;;;;;
2022/02/10 01:10:53;;;;;;;5.9;4;;;;;;;;;;;;;
2022/02/10 01:13:23;;;;;;;7.2;4.3;;;;;;;;;;;;;
2022/02/10 01:30:14;;;;;;;5.6;3.5;;;;;;;;;;;;;
2022/02/10 01:32:45;;;;;;;6.3;3.6;;;;;;;;;;;;;
2022/02/10 01:35:11;;;;;;;4.6;3.5;;;;;;;;;;;;;
2022/02/10 01:37:35;;;;;;;4.5;2.8;;;;;;;;;;;;;
2022/02/10 01:40:08;;;;;;;5.1;3;;;;;;;;;;;;;
2022/02/10 02:04:17;;;;;;;5.2;3.4;;;;;;;;;;;;;
2022/02/10 02:06:45;;;;;;;5.1;3.6;;;;;;;;;;;;;
2022/02/10 02:09:10;;;;;;;5.4;3.5;;;;;;;;;;;;;
2022/02/10 02:11:33;;;;;;;5.4;3.3;;;;;;;;;;;;;
2022/02/10 02:13:58;;;;;;;4.3;3;;;;;;;;;;;;;
2022/02/10 02:16:25;;;;;;;4.9;2.9;;;;;;;;;;;;;
2022/02/10 02:18:52;;;;;;;4.6;3;;;;;;;;;;;;;
2022/02/10 02:21:17;;;;;;;4.2;2.9;;;;;;;;;;;;;
2022/02/10 02:23:43;;;;;;;3.8;2.7;;;;;;;;;;;;;
2022/02/10 02:26:13;;;;;;;3.5;2.4;;;;;;;;;;;;;
2022/02/10 02:28:34;;;;;;;3.3;2.1;;;;;;;;;;;;;
2022/02/10 02:31:05;;;;;;;3.7;2.4;;;;;;;;;;;;;
2022/02/10 02:33:58;;;;;;;4.1;2.7;;;;;;;;;;;;;
2022/02/10 02:36:18;;;;;;;3.5;2.5;;;;;;;;;;;;;
2022/02/10 02:38:37;;;;;;;4.9;3.2;;;;;;;;;;;;;
2022/02/10 03:05:09;;;;;;;2.1;1.8;;;;;;;;;;;;;
2022/02/10 03:07:30;;;;;;;4.2;2.2;;;;;;;;;;;;;
2022/02/10 03:09:55;;;;;;;4.1;2.7;;;;;;;;;;;;;
2022/02/10 03:12:12;;;;;;;3.9;2.8;;;;;;;;;;;;;
2022/02/10 03:14:38;;;;;;;4;2.8;;;;;;;;;;;;;
2022/02/10 03:17:35;;;;;;;4.7;2.6;;;;;;;;;;;;;
2022/02/10 03:19:40;;;;;;;3.5;2;;;;;;;;;;;;;
2022/02/10 03:22:06;;;;;;;3.7;2.6;;;;;;;;;;;;;
2022/02/10 04:02:59;;;;;;;3;2.2;;;;;;;-1.42;86.11914;944.4559;;;;
2022/02/10 04:07:52;;;;;;;3.3;2.4;;;;;;;-1.27;86.9707;944.4094;;;;
2022/02/10 04:10:13;;;;;;;2.3;1.9;;;;;;;-1.2;86.08398;944.3223;;;;
2022/02/10 04:12:52;;;;;;;2.3;1.7;;;;;;;-1.23;86.00098;944.3078;;;;
2022/02/10 04:15:04;;;;;;;2.3;1.6;;;;;;;-1.35;86.16406;944.2736;;;;
2022/02/10 04:17:43;;;;;;;1.5;1.4;;;;;;;-1.36;86.375;944.2914;;;;
2022/02/10 04:20:22;;;;;;;2.1;1.4;;;;;;;-1.2;85.83984;944.216;;;;
2022/02/10 04:22:40;;;;;;;2.1;1.4;;;;;;;-1.18;85.15625;944.2514;;;;
2022/02/10 04:25:17;;;;;;;1.8;1.4;;;;;;;-1.14;84.9209;944.1705;;;;
2022/02/10 04:27:40;;;;;;;2;1.8;;;;;;;-1.06;84.36914;944.2033;;;;
2022/02/10 04:30:25;;;;;;;1.9;1.7;;;;;;;-1;84.28223;944.0927;;;;
2022/02/10 04:40:50;;;;;;;3.2;2.5;;;;;;;-0.72;82.94629;944.1378;;;;
2022/02/10 04:54:50;;;;;;;5.4;3.4;;;;;;;-1.44;85.28125;944.212;;;;
2022/02/10 04:56:58;;;;;;;3.2;2.6;;;;;;;-1.48;85.5166;944.1965;;;;
2022/02/10 04:59:14;;;;;;;2.5;2.2;;;;;;;-1.43;85.54004;944.2205;;;;
2022/02/10 05:01:41;;;;;;;3.2;2.4;;;;;;;-1.51;85.89941;944.1916;;;;
2022/02/10 05:04:24;;;;;;;3.5;2.2;;;;;;;-1.34;85.47852;944.1428;;;;
2022/02/10 05:07:34;;;;;;;2.2;2;;;;;;;-1.43;85.57129;944.128;;;;
2022/02/10 05:19:09;;;;;;;6.5;5.1;;;;;;;-1.61;86.08984;944.157;;;;
2022/02/10 05:21:25;;;;;;;7.3;5.5;;;;;;;-1.67;86.12305;944.2006;;;;
2022/02/10 05:24:11;;;;;;;6.5;5.3;;;;;;;-1.53;85.80664;944.2349;;;;
2022/02/10 05:33:35;;;;;;;10.7;6.6;;;;;;;-1.98;87.21094;944.2302;;;;
2022/02/10 05:35:57;;;;;;;9.7;5.3;;;;;;;-1.88;87.14551;944.2111;;;;
2022/02/10 05:38:25;;;;;;;7.8;5.3;;;;;;;-1.73;86.68652;944.2319;;;;
2022/02/10 05:43:40;;;;;;;8.1;5.7;;;;;;;-1.68;86.23047;944.3123;;;;
2022/02/10 05:45:50;;;;;;;6.4;4.9;;;;;;;-1.79;86.5625;944.2773;;;;
2022/02/10 05:48:35;;;;;;;20.5;11;;;;;;;-1.87;86.96973;944.3594;;;;
2022/02/10 05:52:16;;;;;;;13.6;7.9;;;;;;;-1.87;87.29102;944.4453;;;;
2022/02/10 05:53:21;;;;;;;19.1;11.3;;;;;;;-1.86;86.99121;944.4769;;;;
2022/02/10 05:55:50;;;;;;;20.2;12.1;;;;;;;-1.97;87.17969;944.3026;;;;
2022/02/10 05:58:01;;;;;;;20.7;13.3;;;;;;;-1.94;87.34082;944.3067;;;;
2022/02/10 06:38:11;;;;;;;13.7;9.3;;;;;;;-1.98;87.80957;944.3541;;;;
2022/02/10 06:42:30;;;;;;;8.6;6.2;;;;;;;-1.61;86.13574;944.909;;;;
2022/02/10 06:50:00;;;;;;;8.8;6.5;;;;;;;-1.29;83.94434;945.068;;;;
2022/02/10 06:52:11;;;;;;;12.1;7.2;;;;;;;-1.26;83.41895;945.0506;;;;
2022/02/10 06:54:44;;;;;;;9.7;7.1;;;;;;;-1.24;83.70117;945.0303;;;;
2022/02/10 07:04:34;;;;;;;9.9;6.6;;;;;;;-1.57;84.67871;945.0272;;;;
2022/02/10 07:06:55;;;;;;;8;6.2;;;;;;;-1.41;84.25586;945.0073;;;;
2022/02/10 07:09:24;;;;;;;8.6;6;;;;;;;-1.4;84.36914;945.0168;;;;
2022/02/10 07:11:51;;;;;;;9.5;5.8;;;;;;;-1.47;85.23145;945.0119;;;;
2022/02/10 07:14:19;;;;;;;10.3;7.1;;;;;;;-1.04;84.49707;945.0048;;;;
2022/02/10 07:44:03;;;;;;;9;6.6;;;;;;;2.18;68.25684;945.0075;;;;
2022/02/10 07:48:27;;;;;;;6;5.1;;;;;;;1.75;67.9541;945.0042;;;;
2022/02/10 07:51:07;;;;;;;10.9;7.7;;;;;;;2.47;68.14551;944.9526;;;;
2022/02/10 07:53:22;;;;;;;18.7;12.2;;;;;;;2.55;66.16504;944.9537;;;;
2022/02/10 07:55:55;;;;;;;38.6;19.3;;;;;;;2.59;66.85449;944.9791;;;;
2022/02/10 07:58:11;;;;;;;15;8.4;;;;;;;3.13;63.91113;944.9067;;;;
2022/02/10 08:00:53;;;;;;;28.7;15.6;;;;;;;3.51;63.77539;944.8864;;;;
2022/02/10 08:25:58;;;;;;;17.8;9.7;;;;;;;4.2;61.4834;944.8735;;;;
2022/02/10 08:53:04;;;;;;;2.6;2.4;;;;;;;7.51;46.68848;944.4842;;;;
2022/02/10 08:54:53;;;;;;;15.6;7.7;;;;;;;7.17;47.62598;944.454;;;;
2022/02/10 08:56:54;;;;;;;5.3;3.2;;;;;;;6.8;47.05273;944.3219;;;;
2022/02/10 08:59:34;;;;;;;0.9;0.9;;;;;;;5.79;49.04297;944.3147;;;;
2022/02/10 09:01:54;;;;;;;1.4;0.8;;;;;;;5.38;50.70996;944.207;;;;
2022/02/10 09:04:18;;;;;;;0.8;0.8;;;;;;;5.13;51.89844;944.2383;;;;
2022/02/10 09:06:52;;;;;;;1.6;1.5;;;;;;;5.28;52.94238;944.2144;;;;
2022/02/10 09:09:46;;;;;;;9.3;5.3;;;;;;;5.29;52.22266;944.0997;;;;
2022/02/10 09:19:32;;;;;;;2.9;2.5;;;;;;;5.2;53.10156;944.0161;;;;
2022/02/10 09:22:11;;;;;;;9.2;5.1;;;;;;;5.18;52.49121;943.9214;;;;
2022/02/10 09:27:45;;;;;;;7.4;3.8;;;;;;;5.1;52.88672;943.9307;;;;
2022/02/10 09:54:07;;;;;;;3.2;1.4;;;;;;;8.77;44.7793;943.6567;;;;
2022/02/10 09:55:23;;;;;;;15.3;3.1;;;;;;;9.09;43.38965;943.6627;;;;
2022/02/10 09:59:36;;;;;;;3.3;1.4;;;;;;;9.78;40.14258;943.5565;;;;
2022/02/10 10:01:58;;;;;;;14.4;3.7;;;;;;;10.26;39.11426;943.5536;;;;
2022/02/10 10:04:22;;;;;;;9.9;3;;;;;;;9.86;39.4209;943.5123;;;;
2022/02/10 10:06:58;;;;;;;7.2;3.6;;;;;;;9.69;40.29395;943.5053;;;;
2022/02/10 10:09:26;;;;;;;7.4;3.9;;;;;;;10.09;39.13379;943.4503;;;;
2022/02/10 10:12:02;;;;;;;15.7;4;;;;;;;9.99;40.12891;943.3995;;;;
2022/02/10 10:14:07;;;;;;;8;2.5;;;;;;;10.7;38.64063;943.4372;;;;
2022/02/10 10:16:53;;;;;;;10.2;2.5;;;;;;;10.44;39.3252;943.4211;;;;
2022/02/10 10:19:26;;;;;;;6.9;2.5;;;;;;;11.21;37.38184;943.3758;;;;
2022/02/10 10:21:45;;;;;;;2;1;;;;;;;10.43;37.53223;943.3739;;;;
2022/02/10 10:24:20;;;;;;;16.6;2.1;;;;;;;9.73;38.41699;943.3342;;;;
2022/02/10 10:27:11;;;;;;;5.7;2.2;;;;;;;9.74;39.58008;943.2795;;;;
2022/02/10 10:49:26;;;;;;;3.1;1.3;;;;;;;10.98;36.6416;942.897;;;;
2022/02/10 10:51:22;;;;;;;5.7;2;;;;;;;10.89;38.23438;942.8614;;;;
2022/02/10 10:53:34;;;;;;;3.5;1.2;;;;;;;10.78;36.06543;942.8688;;;;
2022/02/10 10:55:58;;;;;;;3.1;1.2;;;;;;;10.63;40.11914;942.7877;;;;
2022/02/10 10:58:27;;;;;;;1.8;0.8;;;;;;;10.36;39.1123;942.707;;;;
2022/02/10 11:07:20;;;;;;;2.7;1;;;;;;;10.61;39.10059;942.4903;;;;
2022/02/10 11:36:22;;;;;;;1.6;1.1;;;;;;;12.25;38.59473;942.442;;;;
2022/02/10 11:38:31;;;;;;;2.9;1.7;;;;;;;16.37;29.06836;942.1877;;;;
2022/02/10 11:40:52;;;;;;;2.4;1.2;;;;;;;16.42;28.53906;942.2206;;;;
2022/02/10 11:43:29;;;;;;;2.3;1;;;;;;;15.58;28.36816;942.1733;;;;
2022/02/10 11:46:16;;;;;;;1.7;0.8;;;;;;;15.6;30.93457;942.1752;;;;
2022/02/10 11:59:35;;;;;;;1.8;0.9;;;;;;;14.65;32.61914;942.1064;;;;
2022/02/10 12:32:06;;;;;;;1.5;0.8;;;;;;;24.88;20.84375;941.6883;;;;
2022/02/10 12:37:41;;;;;;;3.2;0.9;;;;;;;28.54;17.69629;941.7094;;;;
2022/02/10 12:40:10;;;;;;;1.8;0.9;;;;;;;28.8;16.82617;941.733;;;;
2022/02/10 12:43:16;;;;;;;1.1;0.9;;;;;;;28.84;16.58984;941.6942;;;;
2022/02/10 13:24:11;;;;;;;1.4;1.1;;;;;;;32.36;14.02051;941.3524;;;;
2022/02/10 13:32:03;;;;;;;2.4;1.4;;;;;;;31.84;15.22656;941.2612;;;;
2022/02/10 13:48:05;;;;;;;1.6;1.3;;;;;;;28.88;17.09082;941.3547;;;;
2022/02/10 13:48:45;;;;;;;2.5;1.2;;;;;;;25.48;19.28906;941.2291;;;;
2022/02/10 14:10:36;;;;;;;2.7;1.5;;;;;;;17.38;30.43457;941.3814;;;;
2022/02/10 14:12:52;;;;;;;3.1;1.5;;;;;;;17.3;30.86914;941.4178;;;;
2022/02/10 14:15:05;;;;;;;3.7;1.9;;;;;;;16.73;31.94043;941.4822;;;;
2022/02/10 14:17:32;;;;;;;3.1;1.9;;;;;;;17.17;31.47461;941.4455;;;;
2022/02/10 14:20:00;;;;;;;3.3;1.9;;;;;;;19.31;29.34473;941.3591;;;;
2022/02/10 14:22:37;;;;;;;2;1.6;;;;;;;21.34;25.26563;941.2875;;;;
2022/02/10 14:27:11;;;;;;;3.6;2;;;;;;;23.79;22.67578;941.4036;;;;
2022/02/10 14:29:41;;;;;;;4.9;2.2;;;;;;;22.98;23.23438;941.389;;;;
2022/02/10 14:32:06;;;;;;;4.1;1.6;;;;;;;22.7;23.17188;941.4311;;;;
2022/02/10 14:34:33;;;;;;;3.2;2;;;;;;;23.98;22.29688;941.3928;;;;
2022/02/10 14:37:16;;;;;;;2;1.6;;;;;;;25.57;20.74609;941.3286;;;;
2022/02/10 14:39:41;;;;;;;3.1;1.8;;;;;;;26.99;20.66992;941.3617;;;;
2022/02/10 15:12:02;;;;;;;3.7;2.2;;;;;;;26.57;21.90527;941.187;;;;
2022/02/10 15:14:43;;;;;;;4.2;2.1;;;;;;;26.62;21.41113;941.2261;;;;
2022/02/10 15:21:28;;;;;;;3.4;1.8;;;;;;;23.02;27.13574;941.2402;;;;
2022/02/10 15:46:01;;;;;;;4.6;2.1;;;;;;;14.58;42.17871;941.2639;;;;
2022/02/10 15:51:07;;;;;;;3.6;2.3;;;;;;;10.33;55.65625;941.2848;;;;
2022/02/10 15:53:18;;;;;;;4.1;2.5;;;;;;;10.16;56.14746;941.2942;;;;
2022/02/10 15:55:41;;;;;;;5.9;3.4;;;;;;;10.01;56.17578;941.3016;;;;
2022/02/10 16:17:40;;;;;;;20.7;15.4;;;;;;;8;64.10938;941.3006;;;;
2022/02/10 16:20:19;;;;;;;12.3;9;;;;;;;7.92;63.64355;941.1838;;;;
2022/02/10 16:22:57;;;;;;;10.3;7.3;;;;;;;7.98;63.73242;941.2065;;;;
2022/02/10 16:25:17;;;;;;;13.1;8;;;;;;;7.89;64.1709;941.1576;;;;
2022/02/10 16:27:48;;;;;;;4.8;3.8;;;;;;;7.89;63.54688;941.1719;;;;
2022/02/10 16:30:11;;;;;;;5.1;3.6;;;;;;;7.82;63.45703;941.2566;;;;
2022/02/10 16:32:32;;;;;;;16.6;10.9;;;;;;;7.43;66.41504;941.308;;;;
2022/02/10 16:35:03;;;;;;;14.7;9;;;;;;;7.35;66.79883;941.2653;;;;
2022/02/10 16:37:27;;;;;;;19.7;7.3;;;;;;;7.29;66.14453;941.2828;;;;
2022/02/10 16:39:56;;;;;;;23.1;15;;;;;;;6.77;66.81055;941.2329;;;;
2022/02/10 16:42:25;;;;;;;9.6;6.2;;;;;;;6.86;66.57617;941.2363;;;;
2022/02/10 16:44:51;;;;;;;14.4;7.9;;;;;;;6.91;66.26758;941.245;;;;
2022/02/10 16:47:15;;;;;;;11.5;8;;;;;;;6.93;66.39453;941.2953;;;;
2022/02/10 16:49:50;;;;;;;10.6;6.5;;;;;;;6.46;69.12695;941.3517;;;;
2022/02/10 16:52:12;;;;;;;12.4;7.9;;;;;;;6.63;68.2832;941.3134;;;;
2022/02/10 16:54:44;;;;;;;15.1;10.8;;;;;;;6.79;68.2168;941.4328;;;;
2022/02/10 16:57:13;;;;;;;23.3;14;;;;;;;6.81;67.93848;941.4187;;;;
2022/02/10 16:59:46;;;;;;;21.6;14.1;;;;;;;6.62;68.08789;941.3543;;;;
2022/02/10 17:02:52;;;;;;;27.4;16.6;;;;;;;6.33;68.90137;941.3427;;;;
2022/02/10 17:05:02;;;;;;;24.9;15.2;;;;;;;6.39;67.81445;941.3574;;;;
2022/02/10 17:14:37;;;;;;;51.9;30.5;;;;;;;6.39;69.26367;941.3439;;;;
2022/02/10 17:17:37;;;;;;;38.1;24;;;;;;;6.2;69.98926;941.3466;;;;
2022/02/10 17:19:11;;;;;;;22;13.3;;;;;;;6.06;70.13477;941.4172;;;;
2022/02/10 17:25:08;;;;;;;19.8;13.9;;;;;;;6.04;69.99609;941.317;;;;
2022/02/10 17:26:45;;;;;;;9.3;7.5;;;;;;;5.36;71.72461;941.356;;;;
2022/02/10 17:29:08;;;;;;;61.7;39.3;;;;;;;5.32;71.26563;941.3489;;;;
2022/02/10 17:31:45;;;;;;;36.1;22.5;;;;;;;5.32;70.4209;941.3453;;;;
2022/02/10 17:34:21;;;;;;;31.6;20.3;;;;;;;5.14;71.5625;941.3828;;;;
2022/02/10 17:36:33;;;;;;;9.7;6.7;;;;;;;5.09;71.81445;941.4547;;;;
2022/02/10 17:41:43;;;;;;;27.7;18.7;;;;;;;5.26;72.02344;941.3542;;;;
2022/02/10 17:44:08;;;;;;;31;22.2;;;;;;;5.16;72.60449;941.4144;;;;
2022/02/10 17:46:19;;;;;;;31.8;22.9;;;;;;;5.13;72.62207;941.4592;;;;
2022/02/10 17:51:41;;;;;;;30.8;20.3;;;;;;;5.09;73.14453;941.5666;;;;
2022/02/10 17:53:38;;;;;;;32.3;21.3;;;;;;;4.99;73.00488;941.6411;;;;
2022/02/10 17:56:00;;;;;;;22.2;16;;;;;;;4.98;73.72266;941.6128;;;;
2022/02/10 17:58:32;;;;;;;21.2;15;;;;;;;4.89;73.84277;941.639;;;;
2022/02/10 18:00:59;;;;;;;22.9;15.4;;;;;;;4.8;74.05273;941.6544;;;;
2022/02/10 18:03:22;;;;;;;18.5;13.6;;;;;;;4.79;73.17188;941.665;;;;
2022/02/10 18:06:19;;;;;;;16;11.7;;;;;;;4.77;73.51855;941.6855;;;;
2022/02/10 18:08:18;;;;;;;15.2;11.5;;;;;;;4.66;74.08398;941.8431;;;;
2022/02/10 18:13:22;;;;;;;16.2;11;;;;;;;4.43;74.53027;941.8156;;;;
2022/02/10 18:15:39;;;;;;;25.1;17.1;;;;;;;4.14;75.60254;941.851;;;;
2022/02/10 18:18:10;;;;;;;26.2;16.8;;;;;;;4.09;75.40234;941.9333;;;;
2022/02/10 18:20:34;;;;;;;28.3;20.3;;;;;;;4.17;74.69629;941.8708;;;;
2022/02/10 18:23:09;;;;;;;42.6;30;;;;;;;4.28;73.89551;941.8221;;;;
2022/02/10 18:26:03;;;;;;;27.7;20;;;;;;;4.34;74.36621;941.867;;;;
2022/02/10 18:28:19;;;;;;;22.4;15.9;;;;;;;4.15;75.13086;941.8716;;;;
2022/02/10 18:30:37;;;;;;;24.6;16.2;;;;;;;4.19;74.87012;941.9648;;;;
2022/02/10 18:54:26;;;;;;;30.2;20.1;;;;;;;4.11;75.33984;942.1066;;;;
2022/02/10 19:07:50;;;;;;;40.7;26;;;;;;;3.32;77.12012;942.3172;;;;
2022/02/10 19:09:56;;;;;;;37.7;23.6;;;;;;;3.41;77.17871;942.3926;;;;
2022/02/10 19:12:27;;;;;;;143.9;75.4;;;;;;;3.4;77.23438;942.4763;;;;
2022/02/10 19:14:53;;;;;;;42.9;27.2;;;;;;;3.37;76.89258;942.4657;;;;
2022/02/10 19:17:14;;;;;;;31.7;20.7;;;;;;;3.26;77.23047;942.5229;;;;
2022/02/10 19:19:42;;;;;;;23.1;16.6;;;;;;;3.31;77.37402;942.5574;;;;
2022/02/10 19:22:07;;;;;;;22.9;17.1;;;;;;;3.01;78.94824;942.6094;;;;
2022/02/10 19:24:37;;;;;;;22.2;15.7;;;;;;;3.03;78.6709;942.6133;;;;
2022/02/10 19:27:07;;;;;;;23.5;16.4;;;;;;;2.67;79.82715;942.655;;;;
2022/02/10 19:29:32;;;;;;;21.6;15;;;;;;;2.88;79.03516;942.7975;;;;
2022/02/10 19:31:59;;;;;;;18.8;13.6;;;;;;;2.94;79.15918;942.7751;;;;
2022/02/10 19:34:30;;;;;;;20.2;13.6;;;;;;;2.87;79.21289;942.8591;;;;
2022/02/10 19:36:52;;;;;;;17.6;11.9;;;;;;;2.87;78.60645;942.8575;;;;
2022/02/10 19:39:19;;;;;;;18.6;12;;;;;;;2.73;79.42285;942.9169;;;;
2022/02/10 19:41:43;;;;;;;18.9;12.7;;;;;;;2.72;79.08496;942.912;;;;
2022/02/10 19:44:07;;;;;;;64.1;30.4;;;;;;;2.56;80.12988;942.9316;;;;
2022/02/10 19:46:30;;;;;;;46.3;23.7;;;;;;;2.64;80.05566;942.9412;;;;
2022/02/10 19:48:57;;;;;;;51.1;28.5;;;;;;;2.75;79.30273;943.0028;;;;
2022/02/10 19:51:21;;;;;;;20.2;14.1;;;;;;;2.78;79.12988;943.0287;;;;
2022/02/10 19:53:47;;;;;;;19.4;13.7;;;;;;;2.82;78.68848;943.0167;;;;
2022/02/10 19:56:13;;;;;;;22.9;16.3;;;;;;;2.48;79.5;943.0019;;;;
2022/02/10 19:58:37;;;;;;;24.1;16.1;;;;;;;2.43;80.39746;942.9885;;;;
2022/02/10 20:01:04;;;;;;;30.9;23.2;;;;;;;2.48;80.30762;943.1041;;;;
2022/02/10 20:03:32;;;;;;;35;21.3;;;;;;;2.6;79.66602;943.0309;;;;
2022/02/10 20:05:55;;;;;;;24.1;17.1;;;;;;;2.48;80.01367;943.1674;;;;
2022/02/10 20:08:19;;;;;;;18.9;14.3;;;;;;;2.38;80.66797;943.1643;;;;
2022/02/10 20:10:54;;;;;;;17.7;13.1;;;;;;;2.5;79.96191;943.1448;;;;
2022/02/10 20:13:17;;;;;;;19.7;12.9;;;;;;;2.49;80.03809;942.992;;;;
2022/02/10 20:15:43;;;;;;;17.3;11.6;;;;;;;2.46;79.87598;942.9789;;;;
2022/02/10 20:18:12;;;;;;;21;14.5;;;;;;;2.43;79.97168;942.9899;;;;
2022/02/10 20:20:34;;;;;;;23.9;14.5;;;;;;;2.32;80.46484;943.022;;;;
2022/02/10 20:23:02;;;;;;;29.4;18;;;;;;;2.35;80.97559;943.0435;;;;
2022/02/10 20:25:27;;;;;;;20.9;14;;;;;;;2.4;80.4375;943.0559;;;;
2022/02/10 20:27:59;;;;;;;19.6;12.2;;;;;;;2.37;79.79199;943.0341;;;;
2022/02/10 20:30:27;;;;;;;20.4;14.3;;;;;;;2.41;79.92188;943.0394;;;;
2022/02/10 20:32:58;;;;;;;23.7;15.2;;;;;;;2.53;79.7998;943.0121;;;;
2022/02/10 20:35:28;;;;;;;20.3;14.5;;;;;;;2.36;80.0459;942.9666;;;;
2022/02/10 20:37:59;;;;;;;30.6;18.4;;;;;;;2.14;80.95898;943.0865;;;;
2022/02/10 20:40:24;;;;;;;30.8;20.3;;;;;;;2.14;80.87891;943.1021;;;;
2022/02/10 20:43:03;;;;;;;30.6;20.6;;;;;;;1.99;81.33203;943.0095;;;;
2022/02/10 20:45:23;;;;;;;27.3;18.3;;;;;;;1.88;81.34473;943.002;;;;
2022/02/10 20:47:49;;;;;;;19.4;13.3;;;;;;;1.66;82.23145;942.9695;;;;
2022/02/10 20:50:14;;;;;;;21.3;12.5;;;;;;;1.55;82.91309;943.0374;;;;
2022/02/10 20:52:41;;;;;;;140.7;85.4;;;;;;;1.36;83.89355;943.0455;;;;
2022/02/10 20:55:06;;;;;;;19.3;13.9;;;;;;;1.41;84.19434;943.0625;;;;
2022/02/10 20:57:32;;;;;;;15.9;10.6;;;;;;;1.52;83.82324;943.0108;;;;
2022/02/10 20:59:59;;;;;;;17.1;12.3;;;;;;;1.59;83.24609;942.918;;;;
2022/02/10 21:02:33;;;;;;;15.9;11.2;;;;;;;1.62;83.00586;942.8325;;;;
2022/02/10 21:04:56;;;;;;;16.8;12;;;;;;;1.58;83.00977;942.9385;;;;
2022/02/10 21:07:22;;;;;;;163.7;148;;;;;;;1.63;82.85254;942.9109;;;;
2022/02/10 21:09:49;;;;;;;31.3;28;;;;;;;1.76;81.9248;942.829;;;;
2022/02/10 21:12:09;;;;;;;21.7;14.7;;;;;;;1.71;82.39746;942.8638;;;;
2022/02/10 21:14:32;;;;;;;24.4;20.5;;;;;;;1.85;81.69629;942.7374;;;;
2022/02/10 21:17:09;;;;;;;26.1;17.9;;;;;;;1.78;81.41602;942.8359;;;;
2022/02/10 21:19:29;;;;;;;22.1;14.7;;;;;;;1.78;81.77148;942.8379;;;;
2022/02/10 21:21:59;;;;;;;22.6;15.4;;;;;;;1.49;82.33301;942.8275;;;;
2022/02/10 21:24:29;;;;;;;22;13.8;;;;;;;1.5;82.67871;942.7891;;;;
2022/02/10 21:27:05;;;;;;;14.3;9;;;;;;;1.49;83.09277;942.7581;;;;
2022/02/10 21:29:15;;;;;;;9.9;7.4;;;;;;;1.54;82.72168;942.7262;;;;
2022/02/10 21:31:44;;;;;;;11.6;7.7;;;;;;;1.6;82.44336;942.7383;;;;
2022/02/10 21:34:12;;;;;;;8.7;6.8;;;;;;;1.6;82.47461;942.6992;;;;
2022/02/10 21:37:12;;;;;;;9.1;6.5;;;;;;;1.73;81.80762;942.7053;;;;
2022/02/10 21:39:14;;;;;;;18.4;13;;;;;;;1.77;81.31348;942.6627;;;;
2022/02/10 21:43:10;;;;;;;14;10.6;;;;;;;1.79;81.5293;942.67;;;;
2022/02/10 21:46:48;;;;;;;12;9.9;;;;;;;1.69;82.15918;942.6428;;;;
2022/02/10 21:59:15;;;;;;;13.7;11.7;;;;;;;1.57;82.80469;942.7048;;;;
2022/02/10 22:03:42;;;;;;;12.2;7.9;;;;;;;1.68;82.6582;942.6423;;;;
2022/02/10 22:06:18;;;;;;;14.6;9.9;;;;;;;1.67;83.11523;942.6747;;;;
2022/02/10 22:08:50;;;;;;;14.9;10.1;;;;;;;1.39;83.85352;942.6987;;;;
2022/02/10 22:18:33;;;;;;;13.1;8.7;;;;;;;1.42;83.00977;942.6024;;;;
2022/02/10 22:20:43;;;;;;;15.7;10;;;;;;;1.31;83.22461;942.5393;;;;
2022/02/10 22:23:05;;;;;;;17.9;11.3;;;;;;;1.27;83.71875;942.5051;;;;
2022/02/10 22:25:26;;;;;;;22;13.2;;;;;;;1.34;83.62109;942.442;;;;
2022/02/10 22:28:04;;;;;;;26.1;17.8;;;;;;;1.26;83.66113;942.3971;;;;
2022/02/10 22:30:32;;;;;;;12.7;9.3;;;;;;;1.26;83.91797;942.3463;;;;
2022/02/10 22:32:54;;;;;;;28.2;17.7;;;;;;;1.27;83.99805;942.3625;;;;
2022/02/10 22:35:14;;;;;;;10.9;6.8;;;;;;;1.43;83.40234;942.3054;;;;
2022/02/10 22:37:42;;;;;;;7.6;5.4;;;;;;;1.5;83.00488;942.2536;;;;
2022/02/10 22:40:12;;;;;;;7.5;5.4;;;;;;;1.64;82.43945;942.2745;;;;
2022/02/10 22:42:32;;;;;;;9.5;7.1;;;;;;;1.59;82.51953;942.2192;;;;
2022/02/10 22:45:02;;;;;;;5.8;4.4;;;;;;;1.56;82.89453;942.2651;;;;
2022/02/10 22:47:27;;;;;;;8.7;5.7;;;;;;;1.55;82.89063;942.113;;;;
2022/02/10 22:49:54;;;;;;;9.1;6.4;;;;;;;1.59;82.5752;942.2421;;;;
2022/02/10 22:52:19;;;;;;;11.1;6.7;;;;;;;1.51;82.97363;942.282;;;;
2022/02/10 22:54:47;;;;;;;9;5.8;;;;;;;1.51;83.26367;942.2836;;;;
2022/02/10 22:57:12;;;;;;;8.5;5.7;;;;;;;1.49;83.60742;942.3172;;;;
2022/02/10 22:59:39;;;;;;;34.5;21.1;;;;;;;1.58;83.30078;942.1789;;;;
2022/02/10 23:02:04;;;;;;;91.5;50.5;;;;;;;1.7;82.78516;942.1347;;;;
2022/02/10 23:04:30;;;;;;;31.6;18.5;;;;;;;1.76;82.49512;942.1172;;;;
2022/02/10 23:06:59;;;;;;;11.1;7.1;;;;;;;1.85;82.35645;942.0472;;;;
2022/02/10 23:09:30;;;;;;;9.5;5.5;;;;;;;1.9;81.95313;942.085;;;;
2022/02/10 23:11:49;;;;;;;26.5;14.1;;;;;;;2.03;81.57422;942.0128;;;;
2022/02/10 23:14:14;;;;;;;41;20.9;;;;;;;1.99;81.06543;942.0039;;;;
2022/02/10 23:16:45;;;;;;;80.2;49.4;;;;;;;1.81;81.79004;941.908;;;;
2022/02/10 23:19:07;;;;;;;61.8;40.1;;;;;;;1.77;81.82813;941.9449;;;;
2022/02/10 23:21:34;;;;;;;57.9;33.8;;;;;;;1.64;82.37207;941.9075;;;;
2022/02/10 23:23:59;;;;;;;85.1;46.8;;;;;;;1.54;82.93359;941.8608;;;;
2022/02/10 23:26:28;;;;;;;43.6;24.3;;;;;;;1.52;82.91699;941.858;;;;
2022/02/10 23:28:53;;;;;;;7.1;4.8;;;;;;;1.66;82.61035;941.8124;;;;
2022/02/10 23:31:22;;;;;;;24.6;13.8;;;;;;;1.8;81.98828;941.8475;;;;
2022/02/10 23:33:53;;;;;;;11.1;6.8;;;;;;;1.88;81.40137;941.8086;;;;
2022/02/10 23:38:44;;;;;;;10.4;6.1;;;;;;;1.83;81.42578;941.6925;;;;
2022/02/10 23:41:46;;;;;;;15.7;10.4;;;;;;;2.07;80.62012;941.6314;;;;
2022/02/10 23:43:31;;;;;;;12;7.6;;;;;;;2.01;80.58594;941.6703;;;;
2022/02/10 23:45:59;;;;;;;15.2;9.5;;;;;;;2.09;80.7041;941.606;;;;
2022/02/10 23:48:25;;;;;;;24.3;13.7;;;;;;;2.13;80.61914;941.6028;;;;
2022/02/10 23:50:54;;;;;;;10.3;6.6;;;;;;;2.06;80.89648;941.6042;;;;
2022/02/10 23:53:23;;;;;;;9.3;6.1;;;;;;;2.26;80.16211;941.6545;;;;
2022/02/10 23:55:49;;;;;;;9;6.9;;;;;;;2.4;79.5957;941.6295;;;;
2022/02/10 23:58:25;;;;;;;6.4;4.3;;;;;;;2.33;79.7832;941.5438;;;;
